Chestnutridge, Missouri
Current Conditions -  °F | °C
As of 2:55 PM on Friday 19 Dec 2014 (Local Time) from KFWB Reporting Station
Haze Haze  
Wind Chill: 37°   Ceiling: 200
Heat Index: 37°   Visibility: 1.2mi
Dew Point: 37°   Wind: 3mph
Humidity: 100%   Direction: 80°E
Pressure: 30.18"   Gusts: NA
Location:  36.85°N, 93.18°W
Report Text: KFWB 192055Z AUTO 08003KT 1 1/4SM BR OVC002 03/03 A3018 RMK AO2
Loading
Personal Weather Stations






























Interactive Weather Map New forecast layout! Learn more

10-Day Weather Forecast

Advertisements
Track Severe Weather on mobile